sensor_id;sensor_type;location;lat;lon;timestamp;temperature;humidity
11126;DHT22;5617;54.046;10.676;2022-10-30T00:01:58;13.60;99.90
11126;DHT22;5617;54.046;10.676;2022-10-30T00:04:06;13.60;99.90
11126;DHT22;5617;54.046;10.676;2022-10-30T00:06:14;13.60;99.90
11126;DHT22;5617;54.046;10.676;2022-10-30T00:08:22;13.60;99.90
11126;DHT22;5617;54.046;10.676;2022-10-30T00:10:31;13.60;99.90
11126;DHT22;5617;54.046;10.676;2022-10-30T00:12:43;13.60;99.90
11126;DHT22;5617;54.046;10.676;2022-10-30T00:14:51;13.60;99.90
11126;DHT22;5617;54.046;10.676;2022-10-30T00:16:59;13.60;99.90
11126;DHT22;5617;54.046;10.676;2022-10-30T00:19:08;13.50;99.90
11126;DHT22;5617;54.046;10.676;2022-10-30T00:21:16;13.50;99.90
11126;DHT22;5617;54.046;10.676;2022-10-30T00:23:23;13.60;99.90
11126;DHT22;5617;54.046;10.676;2022-10-30T00:25:33;13.50;99.90
11126;DHT22;5617;54.046;10.676;2022-10-30T00:27:42;13.50;99.90
11126;DHT22;5617;54.046;10.676;2022-10-30T00:29:50;13.50;99.90
11126;DHT22;5617;54.046;10.676;2022-10-30T00:31:58;13.40;99.90
11126;DHT22;5617;54.046;10.676;2022-10-30T00:34:05;13.40;99.90
11126;DHT22;5617;54.046;10.676;2022-10-30T00:36:13;13.40;99.90
11126;DHT22;5617;54.046;10.676;2022-10-30T00:38:21;13.30;99.90
11126;DHT22;5617;54.046;10.676;2022-10-30T00:40:29;13.30;99.90
11126;DHT22;5617;54.046;10.676;2022-10-30T00:42:37;13.30;99.90
11126;DHT22;5617;54.046;10.676;2022-10-30T00:44:47;13.30;99.90
11126;DHT22;5617;54.046;10.676;2022-10-30T00:46:55;13.20;99.90
11126;DHT22;5617;54.046;10.676;2022-10-30T00:49:09;13.20;99.90
11126;DHT22;5617;54.046;10.676;2022-10-30T00:51:18;13.20;99.90
11126;DHT22;5617;54.046;10.676;2022-10-30T00:53:28;13.20;99.90
11126;DHT22;5617;54.046;10.676;2022-10-30T00:55:41;13.10;99.90
11126;DHT22;5617;54.046;10.676;2022-10-30T00:57:50;13.00;99.90
11126;DHT22;5617;54.046;10.676;2022-10-30T01:00:00;13.00;99.90
11126;DHT22;5617;54.046;10.676;2022-10-30T01:02:08;12.90;99.90
11126;DHT22;5617;54.046;10.676;2022-10-30T01:04:16;12.90;99.90
11126;DHT22;5617;54.046;10.676;2022-10-30T01:06:25;12.90;99.90
11126;DHT22;5617;54.046;10.676;2022-10-30T01:08:35;12.80;99.90
11126;DHT22;5617;54.046;10.676;2022-10-30T01:10:43;12.90;99.90
11126;DHT22;5617;54.046;10.676;2022-10-30T01:12:52;12.80;99.90
11126;DHT22;5617;54.046;10.676;2022-10-30T01:15:03;12.80;99.90
11126;DHT22;5617;54.046;10.676;2022-10-30T01:17:30;12.90;99.90
11126;DHT22;5617;54.046;10.676;2022-10-30T01:19:49;12.90;99.90
11126;DHT22;5617;54.046;10.676;2022-10-30T01:22:11;12.90;99.90
11126;DHT22;5617;54.046;10.676;2022-10-30T01:24:30;12.90;99.90
11126;DHT22;5617;54.046;10.676;2022-10-30T01:26:47;12.90;99.90
11126;DHT22;5617;54.046;10.676;2022-10-30T01:29:10;12.90;99.90
11126;DHT22;5617;54.046;10.676;2022-10-30T01:31:39;12.90;99.90
11126;DHT22;5617;54.046;10.676;2022-10-30T01:33:57;12.90;99.90
11126;DHT22;5617;54.046;10.676;2022-10-30T01:36:13;12.90;99.90
11126;DHT22;5617;54.046;10.676;2022-10-30T01:38:27;12.90;99.90
11126;DHT22;5617;54.046;10.676;2022-10-30T01:40:36;12.90;99.90
11126;DHT22;5617;54.046;10.676;2022-10-30T01:42:47;12.90;99.90
11126;DHT22;5617;54.046;10.676;2022-10-30T01:44:55;12.90;99.90
11126;DHT22;5617;54.046;10.676;2022-10-30T01:47:15;12.90;99.90
11126;DHT22;5617;54.046;10.676;2022-10-30T01:49:37;12.90;99.90
11126;DHT22;5617;54.046;10.676;2022-10-30T01:51:56;12.90;99.90
11126;DHT22;5617;54.046;10.676;2022-10-30T01:54:20;12.90;99.90
11126;DHT22;5617;54.046;10.676;2022-10-30T01:56:36;13.00;99.90
11126;DHT22;5617;54.046;10.676;2022-10-30T01:58:50;12.90;99.90
11126;DHT22;5617;54.046;10.676;2022-10-30T02:01:01;13.00;99.90
11126;DHT22;5617;54.046;10.676;2022-10-30T02:03:12;13.00;99.90
11126;DHT22;5617;54.046;10.676;2022-10-30T02:05:26;13.00;99.90
11126;DHT22;5617;54.046;10.676;2022-10-30T02:07:36;13.00;99.90
11126;DHT22;5617;54.046;10.676;2022-10-30T02:09:44;13.10;99.90
11126;DHT22;5617;54.046;10.676;2022-10-30T02:11:52;13.10;99.90
11126;DHT22;5617;54.046;10.676;2022-10-30T02:14:23;13.10;99.90
11126;DHT22;5617;54.046;10.676;2022-10-30T02:16:36;13.10;99.90
11126;DHT22;5617;54.046;10.676;2022-10-30T02:18:46;13.00;99.90
11126;DHT22;5617;54.046;10.676;2022-10-30T02:20:55;13.00;99.90
11126;DHT22;5617;54.046;10.676;2022-10-30T02:23:03;13.00;99.90
11126;DHT22;5617;54.046;10.676;2022-10-30T02:25:11;13.00;99.90
11126;DHT22;5617;54.046;10.676;2022-10-30T02:27:19;13.00;99.90
11126;DHT22;5617;54.046;10.676;2022-10-30T02:29:27;12.90;99.90
11126;DHT22;5617;54.046;10.676;2022-10-30T02:31:35;13.00;99.90
11126;DHT22;5617;54.046;10.676;2022-10-30T02:33:45;13.00;99.90
11126;DHT22;5617;54.046;10.676;2022-10-30T02:35:52;12.90;99.90
11126;DHT22;5617;54.046;10.676;2022-10-30T02:38:01;12.90;99.90
11126;DHT22;5617;54.046;10.676;2022-10-30T02:40:10;12.90;99.90
11126;DHT22;5617;54.046;10.676;2022-10-30T02:42:18;13.00;99.90
11126;DHT22;5617;54.046;10.676;2022-10-30T02:44:26;13.00;99.90
11126;DHT22;5617;54.046;10.676;2022-10-30T02:46:36;13.00;99.90
11126;DHT22;5617;54.046;10.676;2022-10-30T02:48:44;13.10;99.90
11126;DHT22;5617;54.046;10.676;2022-10-30T02:50:52;13.10;99.90
11126;DHT22;5617;54.046;10.676;2022-10-30T02:52:59;13.10;99.90
11126;DHT22;5617;54.046;10.676;2022-10-30T02:55:09;13.10;99.90
11126;DHT22;5617;54.046;10.676;2022-10-30T02:57:16;13.10;99.90
11126;DHT22;5617;54.046;10.676;2022-10-30T02:59:24;13.10;99.90
11126;DHT22;5617;54.046;10.676;2022-10-30T03:01:33;13.20;99.90
11126;DHT22;5617;54.046;10.676;2022-10-30T03:03:41;13.20;99.90
11126;DHT22;5617;54.046;10.676;2022-10-30T03:05:48;13.20;99.90
11126;DHT22;5617;54.046;10.676;2022-10-30T03:07:56;13.30;99.90
11126;DHT22;5617;54.046;10.676;2022-10-30T03:10:04;13.30;99.90
11126;DHT22;5617;54.046;10.676;2022-10-30T03:12:14;13.30;99.90
11126;DHT22;5617;54.046;10.676;2022-10-30T03:14:21;13.30;99.90
11126;DHT22;5617;54.046;10.676;2022-10-30T03:16:29;13.40;99.90
11126;DHT22;5617;54.046;10.676;2022-10-30T03:18:39;13.40;99.90
11126;DHT22;5617;54.046;10.676;2022-10-30T03:20:47;13.40;99.90
11126;DHT22;5617;54.046;10.676;2022-10-30T03:22:55;13.40;99.90
11126;DHT22;5617;54.046;10.676;2022-10-30T03:25:03;13.40;99.90
11126;DHT22;5617;54.046;10.676;2022-10-30T03:27:11;13.50;99.90
11126;DHT22;5617;54.046;10.676;2022-10-30T03:29:20;13.50;99.90
11126;DHT22;5617;54.046;10.676;2022-10-30T03:31:29;13.50;99.90
11126;DHT22;5617;54.046;10.676;2022-10-30T03:33:37;13.50;99.90
11126;DHT22;5617;54.046;10.676;2022-10-30T03:35:46;13.60;99.90
11126;DHT22;5617;54.046;10.676;2022-10-30T03:37:53;13.60;99.90
11126;DHT22;5617;54.046;10.676;2022-10-30T03:40:01;13.60;99.90
11126;DHT22;5617;54.046;10.676;2022-10-30T03:42:10;13.60;99.90
11126;DHT22;5617;54.046;10.676;2022-10-30T03:44:19;13.70;99.90
11126;DHT22;5617;54.046;10.676;2022-10-30T03:46:27;13.70;99.90
11126;DHT22;5617;54.046;10.676;2022-10-30T03:48:37;13.70;99.90
11126;DHT22;5617;54.046;10.676;2022-10-30T03:50:45;13.70;99.90
11126;DHT22;5617;54.046;10.676;2022-10-30T03:52:53;13.80;99.90
11126;DHT22;5617;54.046;10.676;2022-10-30T03:55:03;13.80;99.90
11126;DHT22;5617;54.046;10.676;2022-10-30T03:57:24;13.80;99.90
11126;DHT22;5617;54.046;10.676;2022-10-30T03:59:36;13.80;99.90
11126;DHT22;5617;54.046;10.676;2022-10-30T04:01:48;13.80;99.90
11126;DHT22;5617;54.046;10.676;2022-10-30T04:04:04;13.90;99.90
11126;DHT22;5617;54.046;10.676;2022-10-30T04:06:14;13.90;99.90
11126;DHT22;5617;54.046;10.676;2022-10-30T04:08:26;13.90;99.90
11126;DHT22;5617;54.046;10.676;2022-10-30T04:10:35;13.90;99.90
11126;DHT22;5617;54.046;10.676;2022-10-30T04:12:50;14.00;99.90
11126;DHT22;5617;54.046;10.676;2022-10-30T04:15:17;14.00;99.90
11126;DHT22;5617;54.046;10.676;2022-10-30T04:17:27;14.00;99.90
11126;DHT22;5617;54.046;10.676;2022-10-30T04:19:37;14.00;99.90
11126;DHT22;5617;54.046;10.676;2022-10-30T04:21:45;14.00;99.90
11126;DHT22;5617;54.046;10.676;2022-10-30T04:24:02;14.00;99.90
11126;DHT22;5617;54.046;10.676;2022-10-30T04:26:16;14.00;99.90
11126;DHT22;5617;54.046;10.676;2022-10-30T04:28:43;14.00;99.90
11126;DHT22;5617;54.046;10.676;2022-10-30T04:30:55;14.00;99.90
11126;DHT22;5617;54.046;10.676;2022-10-30T04:33:06;14.00;99.90
11126;DHT22;5617;54.046;10.676;2022-10-30T04:35:17;14.00;99.90
11126;DHT22;5617;54.046;10.676;2022-10-30T04:37:26;13.90;99.90
11126;DHT22;5617;54.046;10.676;2022-10-30T04:39:36;13.90;99.90
11126;DHT22;5617;54.046;10.676;2022-10-30T04:41:44;13.90;99.90
11126;DHT22;5617;54.046;10.676;2022-10-30T04:43:53;13.90;99.90
11126;DHT22;5617;54.046;10.676;2022-10-30T04:46:04;13.90;99.90
11126;DHT22;5617;54.046;10.676;2022-10-30T04:48:16;13.90;99.90
11126;DHT22;5617;54.046;10.676;2022-10-30T04:50:24;13.90;99.90
11126;DHT22;5617;54.046;10.676;2022-10-30T04:52:34;13.90;99.90
11126;DHT22;5617;54.046;10.676;2022-10-30T04:54:43;13.80;99.90
11126;DHT22;5617;54.046;10.676;2022-10-30T04:56:51;13.80;99.90
11126;DHT22;5617;54.046;10.676;2022-10-30T04:58:59;13.80;99.90
11126;DHT22;5617;54.046;10.676;2022-10-30T05:01:10;13.80;99.90
11126;DHT22;5617;54.046;10.676;2022-10-30T05:03:19;13.80;99.90
11126;DHT22;5617;54.046;10.676;2022-10-30T05:05:27;13.80;99.90
11126;DHT22;5617;54.046;10.676;2022-10-30T05:07:35;13.80;99.90
11126;DHT22;5617;54.046;10.676;2022-10-30T05:09:43;13.70;99.90
11126;DHT22;5617;54.046;10.676;2022-10-30T05:11:51;13.70;99.90
11126;DHT22;5617;54.046;10.676;2022-10-30T05:13:58;13.70;99.90
11126;DHT22;5617;54.046;10.676;2022-10-30T05:16:06;13.70;99.90
11126;DHT22;5617;54.046;10.676;2022-10-30T05:18:15;13.70;99.90
11126;DHT22;5617;54.046;10.676;2022-10-30T05:20:24;13.60;99.90
11126;DHT22;5617;54.046;10.676;2022-10-30T05:22:32;13.60;99.90
11126;DHT22;5617;54.046;10.676;2022-10-30T05:24:40;13.60;99.90
11126;DHT22;5617;54.046;10.676;2022-10-30T05:26:47;13.50;99.90
11126;DHT22;5617;54.046;10.676;2022-10-30T05:28:55;13.50;99.90
11126;DHT22;5617;54.046;10.676;2022-10-30T05:31:03;13.50;99.90
11126;DHT22;5617;54.046;10.676;2022-10-30T05:33:11;13.40;99.90
11126;DHT22;5617;54.046;10.676;2022-10-30T05:35:22;13.40;99.90
11126;DHT22;5617;54.046;10.676;2022-10-30T05:37:30;13.30;99.90
11126;DHT22;5617;54.046;10.676;2022-10-30T05:39:38;13.30;99.90
11126;DHT22;5617;54.046;10.676;2022-10-30T05:41:46;13.20;99.90
11126;DHT22;5617;54.046;10.676;2022-10-30T05:43:54;13.20;99.90
11126;DHT22;5617;54.046;10.676;2022-10-30T05:46:01;13.20;99.90
11126;DHT22;5617;54.046;10.676;2022-10-30T05:48:09;13.10;99.90
11126;DHT22;5617;54.046;10.676;2022-10-30T05:50:17;13.10;99.90
11126;DHT22;5617;54.046;10.676;2022-10-30T05:52:26;13.10;99.90
11126;DHT22;5617;54.046;10.676;2022-10-30T05:54:34;13.10;99.90
11126;DHT22;5617;54.046;10.676;2022-10-30T05:56:42;13.10;99.90
11126;DHT22;5617;54.046;10.676;2022-10-30T05:58:50;13.10;99.90
11126;DHT22;5617;54.046;10.676;2022-10-30T06:00:57;13.00;99.90
11126;DHT22;5617;54.046;10.676;2022-10-30T06:03:08;13.00;99.90
11126;DHT22;5617;54.046;10.676;2022-10-30T06:05:16;13.00;99.90
11126;DHT22;5617;54.046;10.676;2022-10-30T06:07:25;12.90;99.90
11126;DHT22;5617;54.046;10.676;2022-10-30T06:09:33;12.90;99.90
11126;DHT22;5617;54.046;10.676;2022-10-30T06:11:41;12.80;99.90
11126;DHT22;5617;54.046;10.676;2022-10-30T06:13:49;12.70;99.90
11126;DHT22;5617;54.046;10.676;2022-10-30T06:15:57;12.70;99.90
11126;DHT22;5617;54.046;10.676;2022-10-30T06:18:05;12.60;99.90
11126;DHT22;5617;54.046;10.676;2022-10-30T06:20:12;12.60;99.90
11126;DHT22;5617;54.046;10.676;2022-10-30T06:22:20;12.60;99.90
11126;DHT22;5617;54.046;10.676;2022-10-30T06:24:29;12.50;99.90
11126;DHT22;5617;54.046;10.676;2022-10-30T06:26:37;12.50;99.90
11126;DHT22;5617;54.046;10.676;2022-10-30T06:28:45;12.50;99.90
11126;DHT22;5617;54.046;10.676;2022-10-30T06:30:53;12.40;99.90
11126;DHT22;5617;54.046;10.676;2022-10-30T06:33:02;12.50;99.90
11126;DHT22;5617;54.046;10.676;2022-10-30T06:35:11;12.40;99.90
11126;DHT22;5617;54.046;10.676;2022-10-30T06:37:18;12.40;99.90
11126;DHT22;5617;54.046;10.676;2022-10-30T06:39:26;12.30;99.90
11126;DHT22;5617;54.046;10.676;2022-10-30T06:41:35;12.30;99.90
11126;DHT22;5617;54.046;10.676;2022-10-30T06:43:43;12.30;99.90
11126;DHT22;5617;54.046;10.676;2022-10-30T06:45:50;12.30;99.90
11126;DHT22;5617;54.046;10.676;2022-10-30T06:47:59;12.30;99.90
11126;DHT22;5617;54.046;10.676;2022-10-30T06:50:09;12.30;99.90
11126;DHT22;5617;54.046;10.676;2022-10-30T06:52:17;12.40;99.90
11126;DHT22;5617;54.046;10.676;2022-10-30T06:54:28;12.40;99.90
11126;DHT22;5617;54.046;10.676;2022-10-30T06:56:37;12.40;99.90
11126;DHT22;5617;54.046;10.676;2022-10-30T06:58:45;12.40;99.90
11126;DHT22;5617;54.046;10.676;2022-10-30T07:00:53;12.40;99.90
11126;DHT22;5617;54.046;10.676;2022-10-30T07:03:01;12.40;99.90
11126;DHT22;5617;54.046;10.676;2022-10-30T07:05:11;12.40;99.90
11126;DHT22;5617;54.046;10.676;2022-10-30T07:07:19;12.40;99.90
11126;DHT22;5617;54.046;10.676;2022-10-30T07:09:27;12.50;99.90
11126;DHT22;5617;54.046;10.676;2022-10-30T07:11:37;12.40;99.90
11126;DHT22;5617;54.046;10.676;2022-10-30T07:13:47;12.50;99.90
11126;DHT22;5617;54.046;10.676;2022-10-30T07:15:57;12.50;99.90
11126;DHT22;5617;54.046;10.676;2022-10-30T07:18:05;12.50;99.90
11126;DHT22;5617;54.046;10.676;2022-10-30T07:20:14;12.50;99.90
11126;DHT22;5617;54.046;10.676;2022-10-30T07:22:22;12.50;99.90
11126;DHT22;5617;54.046;10.676;2022-10-30T07:24:30;12.40;99.90
11126;DHT22;5617;54.046;10.676;2022-10-30T07:26:39;12.50;99.90
11126;DHT22;5617;54.046;10.676;2022-10-30T07:28:47;12.50;99.90
11126;DHT22;5617;54.046;10.676;2022-10-30T07:30:56;12.50;99.90
11126;DHT22;5617;54.046;10.676;2022-10-30T07:33:06;12.60;99.90
11126;DHT22;5617;54.046;10.676;2022-10-30T07:35:14;12.40;99.90
11126;DHT22;5617;54.046;10.676;2022-10-30T07:37:22;12.40;99.90
11126;DHT22;5617;54.046;10.676;2022-10-30T07:39:29;12.40;99.90
11126;DHT22;5617;54.046;10.676;2022-10-30T07:41:39;12.50;99.90
11126;DHT22;5617;54.046;10.676;2022-10-30T07:43:47;12.40;99.90
11126;DHT22;5617;54.046;10.676;2022-10-30T07:45:55;12.50;99.90
11126;DHT22;5617;54.046;10.676;2022-10-30T07:48:03;12.50;99.90
11126;DHT22;5617;54.046;10.676;2022-10-30T07:50:12;12.50;99.90
11126;DHT22;5617;54.046;10.676;2022-10-30T07:52:20;12.50;99.90
11126;DHT22;5617;54.046;10.676;2022-10-30T07:54:27;12.60;99.90
11126;DHT22;5617;54.046;10.676;2022-10-30T07:56:35;12.60;99.90
11126;DHT22;5617;54.046;10.676;2022-10-30T07:58:45;12.60;99.90
11126;DHT22;5617;54.046;10.676;2022-10-30T08:00:52;12.70;99.90
11126;DHT22;5617;54.046;10.676;2022-10-30T08:03:00;12.70;99.90
11126;DHT22;5617;54.046;10.676;2022-10-30T08:05:09;12.80;99.90
11126;DHT22;5617;54.046;10.676;2022-10-30T08:07:17;12.90;99.90
11126;DHT22;5617;54.046;10.676;2022-10-30T08:09:25;13.00;99.90
11126;DHT22;5617;54.046;10.676;2022-10-30T08:11:33;13.10;99.90
11126;DHT22;5617;54.046;10.676;2022-10-30T08:13:41;13.20;99.90
11126;DHT22;5617;54.046;10.676;2022-10-30T08:15:50;13.30;99.90
11126;DHT22;5617;54.046;10.676;2022-10-30T08:17:57;13.40;99.90
11126;DHT22;5617;54.046;10.676;2022-10-30T08:20:06;13.50;99.90
11126;DHT22;5617;54.046;10.676;2022-10-30T08:22:14;13.60;99.90
11126;DHT22;5617;54.046;10.676;2022-10-30T08:24:23;13.70;99.90
11126;DHT22;5617;54.046;10.676;2022-10-30T08:26:31;13.80;99.90
11126;DHT22;5617;54.046;10.676;2022-10-30T08:28:38;14.00;99.90
11126;DHT22;5617;54.046;10.676;2022-10-30T08:30:46;14.10;99.90
11126;DHT22;5617;54.046;10.676;2022-10-30T08:32:57;14.30;99.90
11126;DHT22;5617;54.046;10.676;2022-10-30T08:35:06;14.40;99.90
11126;DHT22;5617;54.046;10.676;2022-10-30T08:37:14;14.60;99.90
11126;DHT22;5617;54.046;10.676;2022-10-30T08:39:23;14.80;99.90
11126;DHT22;5617;54.046;10.676;2022-10-30T08:41:31;14.80;99.90
11126;DHT22;5617;54.046;10.676;2022-10-30T08:43:39;14.90;99.90
11126;DHT22;5617;54.046;10.676;2022-10-30T08:45:46;15.10;99.90
11126;DHT22;5617;54.046;10.676;2022-10-30T08:48:00;15.20;99.90
11126;DHT22;5617;54.046;10.676;2022-10-30T08:50:09;15.40;99.90
11126;DHT22;5617;54.046;10.676;2022-10-30T08:52:17;15.60;99.90
11126;DHT22;5617;54.046;10.676;2022-10-30T08:54:25;15.80;99.90
11126;DHT22;5617;54.046;10.676;2022-10-30T08:56:33;16.00;99.90
11126;DHT22;5617;54.046;10.676;2022-10-30T08:58:41;16.20;99.90
11126;DHT22;5617;54.046;10.676;2022-10-30T09:00:48;16.30;99.90
11126;DHT22;5617;54.046;10.676;2022-10-30T09:02:56;16.60;99.90
11126;DHT22;5617;54.046;10.676;2022-10-30T09:05:06;16.70;99.90
11126;DHT22;5617;54.046;10.676;2022-10-30T09:07:15;16.90;99.90
11126;DHT22;5617;54.046;10.676;2022-10-30T09:09:23;17.10;99.90
11126;DHT22;5617;54.046;10.676;2022-10-30T09:11:30;17.20;99.90
11126;DHT22;5617;54.046;10.676;2022-10-30T09:13:38;17.30;99.90
11126;DHT22;5617;54.046;10.676;2022-10-30T09:15:46;17.50;99.90
11126;DHT22;5617;54.046;10.676;2022-10-30T09:17:55;17.60;99.90
11126;DHT22;5617;54.046;10.676;2022-10-30T09:20:06;17.60;99.90
11126;DHT22;5617;54.046;10.676;2022-10-30T09:22:13;17.60;99.90
11126;DHT22;5617;54.046;10.676;2022-10-30T09:24:21;17.60;99.90
11126;DHT22;5617;54.046;10.676;2022-10-30T09:26:29;17.60;99.90
11126;DHT22;5617;54.046;10.676;2022-10-30T09:28:37;17.50;99.90
11126;DHT22;5617;54.046;10.676;2022-10-30T09:30:44;17.50;99.90
11126;DHT22;5617;54.046;10.676;2022-10-30T09:32:55;17.50;99.90
11126;DHT22;5617;54.046;10.676;2022-10-30T09:35:05;17.50;99.90
11126;DHT22;5617;54.046;10.676;2022-10-30T09:37:13;17.40;99.90
11126;DHT22;5617;54.046;10.676;2022-10-30T09:39:21;17.40;99.90
11126;DHT22;5617;54.046;10.676;2022-10-30T09:41:44;17.40;99.90
11126;DHT22;5617;54.046;10.676;2022-10-30T09:44:10;17.30;99.90
11126;DHT22;5617;54.046;10.676;2022-10-30T09:46:31;17.30;99.90
11126;DHT22;5617;54.046;10.676;2022-10-30T09:48:59;17.30;99.90
11126;DHT22;5617;54.046;10.676;2022-10-30T09:54:03;17.30;99.90
11126;DHT22;5617;54.046;10.676;2022-10-30T09:56:18;17.10;99.90
11126;DHT22;5617;54.046;10.676;2022-10-30T09:58:37;17.10;99.90
11126;DHT22;5617;54.046;10.676;2022-10-30T10:00:52;17.10;99.90
11126;DHT22;5617;54.046;10.676;2022-10-30T10:03:12;17.20;99.90
11126;DHT22;5617;54.046;10.676;2022-10-30T10:05:25;17.30;99.90
11126;DHT22;5617;54.046;10.676;2022-10-30T10:07:37;17.40;99.90
11126;DHT22;5617;54.046;10.676;2022-10-30T10:09:50;17.50;99.90
11126;DHT22;5617;54.046;10.676;2022-10-30T10:12:03;17.70;99.90
11126;DHT22;5617;54.046;10.676;2022-10-30T10:14:14;17.80;99.90
11126;DHT22;5617;54.046;10.676;2022-10-30T10:16:27;18.00;99.90
11126;DHT22;5617;54.046;10.676;2022-10-30T10:18:41;18.10;99.90
11126;DHT22;5617;54.046;10.676;2022-10-30T10:20:52;18.20;99.90
11126;DHT22;5617;54.046;10.676;2022-10-30T10:23:11;18.40;99.90
11126;DHT22;5617;54.046;10.676;2022-10-30T10:25:22;18.50;99.90
11126;DHT22;5617;54.046;10.676;2022-10-30T10:27:43;18.80;99.90
11126;DHT22;5617;54.046;10.676;2022-10-30T10:29:59;18.80;99.90
11126;DHT22;5617;54.046;10.676;2022-10-30T10:32:41;18.90;99.90
11126;DHT22;5617;54.046;10.676;2022-10-30T10:35:01;19.00;99.90
11126;DHT22;5617;54.046;10.676;2022-10-30T10:37:20;19.10;99.90
11126;DHT22;5617;54.046;10.676;2022-10-30T10:39:40;19.10;99.90
11126;DHT22;5617;54.046;10.676;2022-10-30T10:41:59;19.20;99.90
11126;DHT22;5617;54.046;10.676;2022-10-30T10:44:19;19.30;99.90
11126;DHT22;5617;54.046;10.676;2022-10-30T10:46:40;19.30;99.90
11126;DHT22;5617;54.046;10.676;2022-10-30T10:49:02;19.30;99.90
11126;DHT22;5617;54.046;10.676;2022-10-30T10:51:15;19.50;99.90
11126;DHT22;5617;54.046;10.676;2022-10-30T10:53:28;19.60;99.90
11126;DHT22;5617;54.046;10.676;2022-10-30T10:55:38;19.70;99.90
11126;DHT22;5617;54.046;10.676;2022-10-30T10:57:50;19.80;99.90
11126;DHT22;5617;54.046;10.676;2022-10-30T11:00:03;19.90;99.90
11126;DHT22;5617;54.046;10.676;2022-10-30T11:02:28;20.00;99.90
11126;DHT22;5617;54.046;10.676;2022-10-30T11:04:39;20.10;99.90
11126;DHT22;5617;54.046;10.676;2022-10-30T11:06:51;20.20;99.90
11126;DHT22;5617;54.046;10.676;2022-10-30T11:09:11;20.20;99.90
11126;DHT22;5617;54.046;10.676;2022-10-30T11:11:20;20.20;99.90
11126;DHT22;5617;54.046;10.676;2022-10-30T11:13:33;20.20;99.90
11126;DHT22;5617;54.046;10.676;2022-10-30T11:15:51;20.20;99.90
11126;DHT22;5617;54.046;10.676;2022-10-30T11:18:03;20.40;99.90
11126;DHT22;5617;54.046;10.676;2022-10-30T11:20:16;20.40;99.90
11126;DHT22;5617;54.046;10.676;2022-10-30T11:22:29;20.40;99.90
11126;DHT22;5617;54.046;10.676;2022-10-30T11:24:38;20.40;99.90
11126;DHT22;5617;54.046;10.676;2022-10-30T11:26:45;20.60;99.90
11126;DHT22;5617;54.046;10.676;2022-10-30T11:28:57;20.60;99.90
11126;DHT22;5617;54.046;10.676;2022-10-30T11:31:19;20.70;99.90
11126;DHT22;5617;54.046;10.676;2022-10-30T11:33:28;20.80;99.90
11126;DHT22;5617;54.046;10.676;2022-10-30T11:35:41;20.90;99.90
11126;DHT22;5617;54.046;10.676;2022-10-30T11:37:50;20.90;99.90
11126;DHT22;5617;54.046;10.676;2022-10-30T11:40:04;21.00;99.90
11126;DHT22;5617;54.046;10.676;2022-10-30T11:42:13;21.00;99.90
11126;DHT22;5617;54.046;10.676;2022-10-30T11:44:28;21.00;99.90
11126;DHT22;5617;54.046;10.676;2022-10-30T11:46:37;21.10;99.90
11126;DHT22;5617;54.046;10.676;2022-10-30T11:48:45;21.20;99.90
11126;DHT22;5617;54.046;10.676;2022-10-30T11:51:00;21.30;99.90
11126;DHT22;5617;54.046;10.676;2022-10-30T11:53:11;21.40;99.90
11126;DHT22;5617;54.046;10.676;2022-10-30T11:55:25;21.40;99.90
11126;DHT22;5617;54.046;10.676;2022-10-30T11:57:36;21.60;99.90
11126;DHT22;5617;54.046;10.676;2022-10-30T11:59:50;21.70;99.90
11126;DHT22;5617;54.046;10.676;2022-10-30T12:02:00;21.70;99.90
11126;DHT22;5617;54.046;10.676;2022-10-30T12:04:21;21.80;99.90
11126;DHT22;5617;54.046;10.676;2022-10-30T12:06:30;21.80;99.90
11126;DHT22;5617;54.046;10.676;2022-10-30T12:08:38;21.80;99.90
11126;DHT22;5617;54.046;10.676;2022-10-30T12:10:53;21.90;99.90
11126;DHT22;5617;54.046;10.676;2022-10-30T12:13:04;21.90;99.90
11126;DHT22;5617;54.046;10.676;2022-10-30T12:15:19;21.90;99.90
11126;DHT22;5617;54.046;10.676;2022-10-30T12:17:29;21.90;99.90
11126;DHT22;5617;54.046;10.676;2022-10-30T12:19:36;22.00;99.90
11126;DHT22;5617;54.046;10.676;2022-10-30T12:21:46;21.90;99.90
11126;DHT22;5617;54.046;10.676;2022-10-30T12:23:57;21.90;99.90
11126;DHT22;5617;54.046;10.676;2022-10-30T12:26:09;21.90;99.90
11126;DHT22;5617;54.046;10.676;2022-10-30T12:28:20;21.90;99.90
11126;DHT22;5617;54.046;10.676;2022-10-30T12:30:32;22.00;99.90
11126;DHT22;5617;54.046;10.676;2022-10-30T12:32:46;21.90;99.90
11126;DHT22;5617;54.046;10.676;2022-10-30T12:34:58;21.90;99.90
11126;DHT22;5617;54.046;10.676;2022-10-30T12:37:17;21.90;99.90
11126;DHT22;5617;54.046;10.676;2022-10-30T12:39:31;21.90;99.90
11126;DHT22;5617;54.046;10.676;2022-10-30T12:41:49;21.90;99.90
11126;DHT22;5617;54.046;10.676;2022-10-30T12:44:03;21.90;99.90
11126;DHT22;5617;54.046;10.676;2022-10-30T12:46:34;21.90;99.90
11126;DHT22;5617;54.046;10.676;2022-10-30T12:48:49;22.00;99.90
11126;DHT22;5617;54.046;10.676;2022-10-30T12:51:09;22.00;99.90
11126;DHT22;5617;54.046;10.676;2022-10-30T12:53:25;22.10;99.90
11126;DHT22;5617;54.046;10.676;2022-10-30T12:55:36;22.00;99.90
11126;DHT22;5617;54.046;10.676;2022-10-30T12:57:48;21.90;99.90
11126;DHT22;5617;54.046;10.676;2022-10-30T13:00:03;22.00;99.90
11126;DHT22;5617;54.046;10.676;2022-10-30T13:02:22;22.10;99.90
11126;DHT22;5617;54.046;10.676;2022-10-30T13:04:35;22.00;99.90
11126;DHT22;5617;54.046;10.676;2022-10-30T13:06:50;22.00;99.90
11126;DHT22;5617;54.046;10.676;2022-10-30T13:09:07;22.00;99.90
11126;DHT22;5617;54.046;10.676;2022-10-30T13:11:20;22.00;99.90
11126;DHT22;5617;54.046;10.676;2022-10-30T13:13:35;22.10;99.90
11126;DHT22;5617;54.046;10.676;2022-10-30T13:15:45;22.20;99.90
11126;DHT22;5617;54.046;10.676;2022-10-30T13:17:57;22.10;99.90
11126;DHT22;5617;54.046;10.676;2022-10-30T13:20:11;22.20;99.90
11126;DHT22;5617;54.046;10.676;2022-10-30T13:22:22;22.20;99.90
11126;DHT22;5617;54.046;10.676;2022-10-30T13:24:43;22.10;99.90
11126;DHT22;5617;54.046;10.676;2022-10-30T13:26:57;22.00;99.90
11126;DHT22;5617;54.046;10.676;2022-10-30T13:29:19;22.00;99.90
11126;DHT22;5617;54.046;10.676;2022-10-30T13:31:36;22.10;99.90
11126;DHT22;5617;54.046;10.676;2022-10-30T13:33:54;22.10;99.90
11126;DHT22;5617;54.046;10.676;2022-10-30T13:36:09;22.10;99.90
11126;DHT22;5617;54.046;10.676;2022-10-30T13:38:31;22.00;99.90
11126;DHT22;5617;54.046;10.676;2022-10-30T13:40:43;22.00;99.90
11126;DHT22;5617;54.046;10.676;2022-10-30T13:42:59;21.90;99.90
11126;DHT22;5617;54.046;10.676;2022-10-30T13:45:33;21.90;99.90
11126;DHT22;5617;54.046;10.676;2022-10-30T13:47:52;21.90;99.90
11126;DHT22;5617;54.046;10.676;2022-10-30T13:50:20;21.80;99.90
11126;DHT22;5617;54.046;10.676;2022-10-30T13:52:34;21.80;99.90